Latest Weather Observations for Moss Vale

IDN60801

Issued at 7:05 am EST Wednesday 3 September 2014 (issued every 30 minutes, with the page automatically refreshed every 10 minutes)

About weather observations | Map of weather stations | Latest weather observations for NSW | Other Formats
Station Details ID: 068239 Name: MOSS VALE AWS Lat: -34.53 Lon: 150.42 Height: 678.4 m
Data from the previous 72 hours. | See also: Recent months at Moss Vale
Date/Time
EST
Temp
°C
App
Temp
°C
Dew
Point
Rel
Hum
%
Delta-T
°C
Wind Press
QNH
hPa
Press
MSL
hPa
Rain
since 9 am
mm
Dir
 
Spd
km/h
Gust
km/h
Spd
kts
Gust
kts
03/07:00am 3.8 -4.5 -2.0 66 2.2 SW 32 43 17 23 1013.8 1013.3 9.2
03/06:30am 3.9 -4.4 -1.7 67 2.1 SW 32 41 17 22 1013.5 - 9.2
03/06:00am 3.9 -4.5 -1.3 69 2.0 SW 33 50 18 27 1013.2 1012.6 9.2
03/05:30am 4.0 -3.8 -1.0 70 1.9 SW 30 41 16 22 1012.7 - 9.2
03/05:00am 4.2 -3.7 -1.2 68 2.1 SW 30 39 16 21 1012.5 1012.0 9.2
03/04:30am 4.1 -4.2 -1.9 65 2.3 SW 32 43 17 23 1012.0 - 9.2
03/04:00am 4.4 -3.6 -2.2 62 2.5 SW 30 41 16 22 1011.7 1011.1 9.2
03/03:30am 4.6 -3.7 -1.4 65 2.3 SW 32 41 17 22 1011.4 - 9.2
03/03:00am 4.8 -3.9 -0.6 68 2.1 SSW 35 44 19 24 1011.3 1010.8 9.2
03/02:30am 4.9 -3.5 -0.9 66 2.3 SSW 33 46 18 25 1011.4 - 9.2
03/02:00am 5.1 -3.1 -1.1 64 2.4 SW 32 44 17 24 1011.6 1011.0 9.2
03/01:30am 5.2 -3.0 -1.0 64 2.4 SW 32 43 17 23 1012.0 - 9.2
03/01:00am 5.2 -2.9 -0.6 66 2.3 SW 32 52 17 28 1012.0 1011.4 9.2
03/12:44am 5.1 -3.1 -0.7 66 2.3 SSW 32 50 17 27 1011.6 - 9.2
03/12:30am 5.0 -3.7 -0.6 67 2.2 SW 35 46 19 25 1011.4 - 9.2
03/12:11am 5.1 -3.6 -0.7 66 2.3 SW 35 54 19 29 1011.2 - 9.2
03/12:00am 5.1 -4.2 0.5 72 1.9 SW 39 54 21 29 1011.1 1010.6 9.2
 
Date/Time
EST
Temp
°C
App
Temp
°C
Dew
Point
Rel
Hum
%
Delta-T
°C
Wind Press
QNH
hPa
Press
MSL
hPa
Rain
since 9 am
mm
Dir
 
Spd
km/h
Gust
km/h
Spd
kts
Gust
kts
02/11:30pm 5.3 -4.4 0.7 72 1.9 SW 41 54 22 29 1011.2 - 9.2
02/11:00pm 5.0 -3.5 1.1 76 1.6 SW 35 50 19 27 1011.3 1010.8 9.2
02/10:30pm 4.7 -3.6 2.1 83 1.1 SW 35 46 19 25 1011.6 - 9.2
02/10:15pm 4.7 -3.0 2.2 84 1.0 SW 32 50 17 27 1011.9 - 9.2
02/10:05pm 4.5 -3.4 2.4 86 0.9 SW 33 46 18 25 1011.9 - 9.0
02/10:00pm 4.5 -3.3 2.7 88 0.8 SW 33 46 18 25 1011.9 1011.3 8.8
02/09:41pm 4.4 -3.4 2.6 88 0.8 SW 33 44 18 24 1011.8 - 8.6
02/09:37pm 4.4 -3.2 2.6 88 0.8 SW 32 44 17 24 1011.8 - 8.6
02/09:30pm 4.3 -3.3 2.7 89 0.7 SW 32 48 17 26 1011.9 - 8.4
02/09:07pm 4.2 -3.1 2.7 90 0.6 SW 30 41 16 22 1012.3 - 8.2
02/09:00pm 4.2 -3.1 2.7 90 0.6 SW 30 41 16 22 1012.3 1011.8 8.0
02/08:55pm 4.1 -3.2 2.6 90 0.6 SW 30 48 16 26 1012.2 - 8.0
02/08:48pm 4.1 -3.2 2.6 90 0.6 SW 30 48 16 26 1012.1 - 7.8
02/08:30pm 3.8 -3.5 2.5 91 0.5 SW 30 41 16 22 1012.3 - 7.4
02/08:27pm 3.8 -3.5 2.5 91 0.5 SW 30 41 16 22 1012.3 - 7.2
02/08:12pm 3.7 -3.6 2.4 91 0.5 SW 30 48 16 26 1012.5 - 6.6
02/08:00pm 3.7 -4.6 2.4 91 0.5 SSW 35 46 19 25 1012.4 1011.9 6.0
02/07:44pm 3.7 -5.4 1.9 88 0.7 SW 39 61 21 33 1012.0 - 4.8
02/07:33pm 4.2 -3.6 2.7 90 0.6 SW 33 48 18 26 1011.9 - 4.0
02/07:30pm 4.3 -3.5 3.0 91 0.6 SSW 33 52 18 28 1011.8 - 4.0
02/07:26pm 4.3 -3.5 3.0 91 0.6 SSW 33 52 18 28 1011.8 - 3.8
02/07:22pm 4.3 -3.5 2.8 90 0.6 SW 33 44 18 24 1011.8 - 3.8
02/07:11pm 4.4 -2.9 2.6 88 0.8 SW 30 46 16 25 1011.3 - 3.4
02/07:05pm 4.7 -2.5 3.0 89 0.7 SW 30 43 16 23 1011.4 - 3.4
02/07:00pm 4.9 -2.6 3.2 89 0.7 SW 32 44 17 24 1011.2 1010.7 3.2
02/06:54pm 5.1 -2.0 3.4 89 0.7 SW 30 44 16 24 1011.2 - 3.0
02/06:44pm 5.1 -2.4 3.3 88 0.8 SSW 32 44 17 24 1011.0 - 3.0
02/06:30pm 5.4 -2.3 3.4 87 0.9 SW 33 46 18 25 1010.9 - 2.6
02/06:19pm 5.4 -1.7 3.7 89 0.7 SW 30 41 16 22 1010.8 - 2.6
02/06:11pm 5.3 -2.8 3.5 88 0.8 SW 35 54 19 29 1010.7 - 2.4
02/06:00pm 5.6 -2.9 3.4 86 1.0 SW 37 50 20 27 1010.6 1010.0 2.2
02/05:49pm 6.0 -1.6 3.7 85 1.0 SW 33 46 18 25 1010.4 - 2.0
02/05:30pm 6.9 -0.2 3.5 79 1.5 SW 30 46 16 25 1010.0 - 1.8
02/05:00pm 7.5 -0.5 3.7 77 1.7 SW 35 57 19 31 1009.5 1008.9 1.8
02/04:43pm 7.9 0.6 2.6 69 2.3 SW 30 48 16 26 1009.1 - 1.8
02/04:30pm 7.5 1.3 4.1 79 1.5 SW 26 39 14 21 1009.0 - 1.8
02/04:00pm 7.1 1.3 4.6 84 1.1 WSW 24 33 13 18 1008.8 1008.2 1.8
02/03:30pm 7.1 -0.2 5.3 88 0.8 WSW 33 52 18 28 1008.8 - 1.8
02/03:23pm 7.1 -0.3 4.9 86 1.0 WSW 33 52 18 28 1008.6 - 1.8
02/03:20pm 7.2 0.0 5.0 86 1.0 WSW 32 44 17 24 1008.6 - 1.8
02/03:00pm 6.7 0.2 4.9 88 0.8 WSW 28 39 15 21 1008.5 1007.9 1.4
02/02:52pm 7.0 -0.3 4.3 83 1.2 WSW 32 44 17 24 1008.3 - 1.2
02/02:48pm 7.9 1.3 4.3 78 1.6 WSW 28 44 15 24 1008.2 - 0.8
02/02:30pm 8.6 4.4 5.5 81 1.5 SSW 17 22 9 12 1008.2 - 0.8
02/02:00pm 8.2 4.2 5.1 81 1.4 S 15 20 8 11 1008.5 1007.9 0.6
02/01:34pm 7.1 3.3 5.7 91 0.7 S 15 20 8 11 1008.8 - 0.6
02/01:30pm 7.1 3.3 5.9 92 0.6 S 15 22 8 12 1008.8 - 0.6
02/01:15pm 6.8 1.2 5.3 90 0.7 S 24 30 13 16 1008.9 - 0.4
02/01:13pm 6.9 1.7 5.4 90 0.7 S 22 30 12 16 1008.8 - 0.4
02/01:00pm 7.3 0.5 4.9 85 1.1 S 30 39 16 21 1008.8 1008.2 0.2
02/12:57pm 7.6 0.7 4.7 82 1.3 S 30 39 16 21 1008.7 - 0.2
02/12:30pm 9.2 4.4 5.6 78 1.7 SSW 20 26 11 14 1008.8 - 0.0
02/12:08pm 7.9 3.1 4.5 79 1.6 SW 19 28 10 15 1009.1 - 0.0
02/12:00pm 7.9 2.7 5.5 85 1.1 SW 22 30 12 16 1009.1 1008.5 0.0
02/11:52am 7.9 2.7 5.4 84 1.2 WSW 22 30 12 16 1009.1 - 0.0
02/11:30am 8.1 2.4 4.9 80 1.5 WSW 24 35 13 19 1009.1 - 0.0
02/11:00am 8.5 2.3 4.5 76 1.8 WSW 26 35 14 19 1009.5 1008.9 0.0
02/10:30am 8.6 2.1 4.6 76 1.8 WSW 28 43 15 23 1009.4 - 0.0
02/10:00am 8.5 2.0 4.9 78 1.7 WSW 28 39 15 21 1009.4 1008.8 0.0
02/09:30am 8.4 1.6 5.0 79 1.6 WSW 30 43 16 23 1009.5 - 0.0
02/09:00am 8.9 3.3 5.3 78 1.7 SW 24 35 13 19 1009.6 1009.1 0.0
02/08:30am 8.0 1.5 4.8 80 1.5 WSW 28 46 15 25 1009.5 - 0.0
02/08:25am 8.0 1.5 4.8 80 1.5 W 28 46 15 25 1009.4 - 0.0
02/08:00am 7.7 0.8 4.8 82 1.3 W 30 44 16 24 1009.2 1008.6 0.0
02/07:52am 7.7 0.9 5.0 83 1.2 W 30 48 16 26 1009.3 - 0.0
02/07:30am 7.7 0.9 5.0 83 1.2 W 30 41 16 22 1009.1 - 0.0
02/07:00am 7.7 2.5 5.5 86 1.0 W 22 30 12 16 1009.0 1008.4 0.0
02/06:30am 8.1 0.7 5.2 82 1.3 W 33 48 18 26 1009.2 - 0.0
02/06:00am 8.6 1.2 5.2 79 1.6 W 33 44 18 24 1008.6 1008.0 0.0
02/05:30am 8.8 3.5 5.0 77 1.8 W 22 35 12 19 1008.7 - 0.0
02/05:00am 8.8 3.8 4.8 76 1.9 W 20 26 11 14 1009.2 1008.6 0.0
02/04:30am 9.0 3.7 4.8 75 1.9 W 22 30 12 16 1009.3 - 0.0
02/04:00am 8.9 4.1 4.9 76 1.9 W 19 30 10 16 1009.3 1008.7 0.0
02/03:30am 8.9 4.1 4.9 76 1.9 W 19 26 10 14 1009.7 - 0.0
02/03:00am 9.2 4.2 4.8 74 2.0 W 20 30 11 16 1010.1 1009.5 0.0
02/02:30am 9.5 5.5 4.9 73 2.1 W 15 20 8 11 1010.4 - 0.0
02/02:00am 10.1 4.4 4.7 69 2.5 WSW 24 35 13 19 1010.7 1010.1 0.0
02/01:30am 11.7 5.5 4.4 61 3.4 W 26 35 14 19 1010.8 - 0.0
02/01:00am 12.7 7.7 4.7 58 3.8 NNW 20 24 11 13 1010.4 1009.8 0.0
02/12:30am 11.9 7.6 5.3 64 3.2 N 17 20 9 11 1010.2 - 0.0
02/12:00am 12.0 7.4 3.8 57 3.8 N 17 19 9 10 1010.5 1009.9 0.0
 
Date/Time
EST
Temp
°C
App
Temp
°C
Dew
Point
Rel
Hum
%
Delta-T
°C
Wind Press
QNH
hPa
Press
MSL
hPa
Rain
since 9 am
mm
Dir
 
Spd
km/h
Gust
km/h
Spd
kts
Gust
kts
01/11:30pm 12.2 8.3 3.4 55 4.1 NNE 13 19 7 10 1010.8 - 0.0
01/11:00pm 12.6 7.9 3.3 53 4.3 N 17 19 9 10 1011.1 1010.6 0.0
01/10:30pm 12.5 7.8 3.2 53 4.3 N 17 19 9 10 1011.4 - 0.0
01/10:00pm 12.5 7.8 2.9 52 4.4 N 17 20 9 11 1011.4 1010.9 0.0
01/09:30pm 12.9 7.7 2.5 49 4.7 N 19 24 10 13 1011.7 - 0.0
01/09:00pm 12.9 8.4 2.2 48 4.8 NNW 15 19 8 10 1011.8 1011.2 0.0
01/08:30pm 12.8 7.8 1.2 45 5.1 NNW 17 22 9 12 1012.1 - 0.0
01/08:00pm 12.9 8.7 1.6 46 5.1 NNW 13 17 7 9 1012.3 1011.8 0.0
01/07:30pm 13.4 10.0 1.7 45 5.3 NW 9 13 5 7 1012.6 - 0.0
01/07:00pm 13.2 9.5 2.4 48 4.9 NW 11 15 6 8 1012.6 1012.1 0.0
01/06:30pm 13.7 10.0 2.3 46 5.2 NW 11 15 6 8 1012.4 - 0.0
01/06:00pm 14.0 10.0 2.9 47 5.2 WNW 13 19 7 10 1012.3 1011.8 0.0
01/05:30pm 14.6 10.1 2.2 43 5.7 WNW 15 19 8 10 1012.1 - 0.0
01/05:00pm 14.8 10.8 2.7 44 5.6 W 13 19 7 10 1012.0 1011.4 0.0
01/04:30pm 15.2 10.3 1.7 40 6.2 W 17 22 9 12 1011.9 - 0.0
01/04:00pm 15.5 10.3 2.3 41 6.1 W 19 28 10 15 1012.0 1011.4 0.0
01/03:30pm 15.9 10.0 1.6 38 6.5 W 22 30 12 16 1011.9 - 0.0
01/03:00pm 16.7 11.1 3.4 41 6.4 W 22 33 12 18 1012.0 1011.4 0.0
01/02:30pm 17.0 10.5 2.6 38 6.8 W 26 39 14 21 1012.1 - 0.0
01/02:00pm 16.6 11.3 3.0 40 6.5 W 20 32 11 17 1012.4 1011.9 0.0
01/01:30pm 17.4 11.0 1.0 33 7.5 WNW 24 35 13 19 1012.8 - 0.0
01/01:00pm 16.8 9.2 2.8 39 6.6 W 32 41 17 22 1013.2 1012.6 0.0
01/12:30pm 16.9 9.5 2.1 37 6.9 W 30 41 16 22 1013.6 - 0.0
01/12:00pm 17.0 10.1 0.2 32 7.5 W 26 41 14 22 1014.0 1013.5 0.0
01/11:30am 15.9 8.4 1.2 37 6.7 W 30 44 16 24 1014.6 - 0.0
01/11:00am 15.7 10.1 3.2 43 5.9 W 22 32 12 17 1015.1 1014.6 0.0
01/10:30am 14.9 9.7 3.4 46 5.4 W 20 28 11 15 1015.3 - 0.0
01/10:00am 14.2 9.1 4.2 51 4.8 W 20 32 11 17 1015.8 1015.3 0.0
01/09:30am 12.9 7.2 3.0 51 4.6 W 22 32 12 17 1016.4 - 0.0
01/09:00am 12.0 7.1 5.0 62 3.3 W 20 28 11 15 1016.8 1017.2 0.0
01/08:30am 10.6 5.9 2.9 59 3.5 W 17 24 9 13 1016.8 - 0.0
01/08:00am 9.5 5.2 3.5 66 2.7 W 15 24 8 13 1016.8 1017.2 0.0
01/07:30am 6.7 2.8 3.3 79 1.5 W 13 17 7 9 1016.9 - 0.0
01/07:00am 5.1 1.5 3.0 86 0.9 W 11 15 6 8 1016.7 1017.1 0.0
01/06:30am 4.0 0.3 2.5 90 0.6 WNW 11 13 6 7 1016.5 - 0.0
01/06:00am 3.4 0.6 1.9 90 0.6 NW 6 7 3 4 1016.4 1016.8 0.0
01/05:30am 3.5 1.8 2.0 90 0.6 CALM 0 6 0 3 1016.1 - 0.0
01/05:28am 3.5 1.8 2.0 90 0.6 CALM 0 0 0 0 1016.1 - 0.0
01/05:00am 2.6 0.8 1.1 90 0.6 CALM 0 0 0 0 1016.3 1016.7 0.0
01/04:30am 3.4 1.7 1.9 90 0.6 CALM 0 0 0 0 1016.1 - 0.0
01/04:00am 3.5 1.8 2.0 90 0.6 CALM 0 0 0 0 1016.1 1016.5 0.0
01/03:30am 3.6 1.9 2.0 89 0.7 CALM 0 0 0 0 1016.3 - 0.0
01/03:00am 4.1 2.5 2.5 89 0.7 CALM 0 0 0 0 1016.3 1016.7 0.0
01/02:30am 3.8 2.2 2.2 89 0.7 CALM 0 0 0 0 1016.3 - 0.0
01/02:00am 4.2 1.3 2.6 89 0.7 NNE 7 7 4 4 1016.7 1017.1 0.0
01/01:31am 4.4 2.5 2.6 88 0.8 WNW 2 6 1 3 1017.2 - 0.0
01/01:30am 4.4 2.5 2.6 88 0.8 WNW 2 6 1 3 1017.2 - 0.0
01/01:00am 4.6 1.7 2.8 88 0.8 W 7 9 4 5 1017.6 1018.1 0.0
01/12:30am 4.8 2.2 3.0 88 0.8 NNW 6 7 3 4 1017.7 - 0.0
01/12:02am 5.2 2.6 3.2 87 0.9 NNE 6 6 3 3 1018.0 - 0.0
01/12:00am 5.2 2.7 3.7 90 0.7 NNE 6 7 3 4 1018.0 1018.4 0.0
 
Date/Time
EST
Temp
°C
App
Temp
°C
Dew
Point
Rel
Hum
%
Delta-T
°C
Wind Press
QNH
hPa
Press
MSL
hPa
Rain
since 9 am
mm
Dir
 
Spd
km/h
Gust
km/h
Spd
kts
Gust
kts
31/11:30pm 5.8 4.2 4.3 90 0.7 NNE 2 7 1 4 1018.3 - 0.0
31/11:00pm 6.0 4.0 4.2 88 0.8 NNE 4 7 2 4 1018.4 1018.8 0.0
31/10:30pm 6.4 5.2 4.4 87 0.9 CALM 0 6 0 3 1018.5 - 0.0
31/10:00pm 7.0 5.2 5.2 88 0.8 N 4 7 2 4 1018.7 1019.1 0.0
31/09:30pm 7.8 5.4 5.4 85 1.1 N 7 9 4 5 1018.7 - 0.0
31/09:00pm 8.0 5.4 6.0 87 0.9 N 9 9 5 5 1018.7 1019.1 0.0
31/08:30pm 8.3 5.7 6.3 87 1.0 N 9 13 5 7 1018.6 - 0.0
31/08:00pm 8.5 5.0 5.6 82 1.4 N 13 15 7 8 1018.6 1019.0 0.0
31/07:30pm 9.0 5.9 3.4 68 2.5 W 9 11 5 6 1018.7 - 0.0
31/07:00pm 10.3 7.1 2.9 60 3.3 WSW 9 11 5 6 1018.4 1018.8 0.0
31/06:30pm 11.7 8.4 2.7 54 4.1 WSW 9 11 5 6 1018.3 - 0.0
31/06:00pm 12.7 9.7 2.3 49 4.7 W 7 9 4 5 1017.9 1018.3 0.0
31/05:30pm 14.0 10.6 2.0 44 5.5 WSW 9 15 5 8 1017.7 - 0.0
31/05:00pm 14.8 10.8 3.0 45 5.5 WSW 13 17 7 9 1017.6 1018.1 0.0
31/04:30pm 15.5 11.5 2.7 42 6.0 WSW 13 22 7 12 1017.5 - 0.0
31/04:00pm 15.7 11.2 4.4 47 5.5 WSW 17 20 9 11 1017.5 1018.0 0.0
31/03:30pm 15.9 11.7 5.5 50 5.2 WSW 17 24 9 13 1017.7 - 0.0
31/03:00pm 15.5 10.8 3.0 43 5.9 SW 17 20 9 11 1018.1 1018.5 0.0
31/02:30pm 15.8 10.9 4.2 46 5.6 WSW 19 22 10 12 1018.1 - 0.0
31/02:00pm 15.1 10.3 4.8 50 5.0 WSW 19 26 10 14 1018.5 1018.9 0.0
31/01:30pm 14.9 9.7 3.7 47 5.3 SW 20 28 11 15 1018.7 - 0.0
31/01:00pm 14.9 10.8 6.2 56 4.3 SW 17 22 9 12 1019.0 1019.5 0.0
31/12:30pm 14.3 9.7 5.4 55 4.4 WSW 19 24 10 13 1019.5 - 0.0
31/12:00pm 13.8 9.5 5.2 56 4.2 W 17 22 9 12 1020.0 1020.4 0.0
31/11:30am 13.0 9.3 4.7 57 4.0 WSW 13 20 7 11 1020.5 - 0.0
31/11:00am 12.0 9.1 6.5 69 2.7 W 11 17 6 9 1020.7 1021.2 0.0
31/10:35am 10.8 7.7 7.1 78 1.8 WSW 13 17 7 9 1021.1 - 0.0
31/10:30am 10.7 7.6 7.4 80 1.6 WSW 13 19 7 10 1021.2 - 0.0
31/10:00am 9.7 6.6 7.1 84 1.3 W 13 19 7 10 1021.5 1022.0 0.0
31/09:30am 8.8 5.9 6.4 85 1.2 WSW 11 17 6 9 1021.5 - 0.0
31/09:00am 8.5 5.6 6.6 88 0.9 WSW 11 17 6 9 1021.7 1022.2 0.4
31/08:36am 8.2 5.3 6.7 90 0.7 WSW 11 15 6 8 1021.8 - 0.4
31/08:30am 7.9 5.0 6.4 90 0.7 WSW 11 17 6 9 1021.8 - 0.4
31/08:03am 7.9 5.0 6.4 90 0.7 W 11 15 6 8 1021.7 - 0.4
31/08:00am 8.0 5.1 6.5 90 0.7 W 11 15 6 8 1021.7 1022.2 0.4
31/07:30am 7.8 5.6 6.4 91 0.7 WSW 7 9 4 5 1021.4 - 0.4

Other Formats:

Comma delimited format used in spreadsheet applications
http://www.bom.gov.au/fwo/IDN60801/IDN60801.94746.axf

JavaScript Object Notation format (JSON) in row-major order
http://www.bom.gov.au/fwo/IDN60801/IDN60801.94746.json